sensor_id;sensor_type;location;lat;lon;timestamp;P1;durP1;ratioP1;P2;durP2;ratioP2
8281;SDS011;25606;42.686;23.136;2023-09-19T00:00:56;0.60;;;0.60;;
8281;SDS011;25606;42.686;23.136;2023-09-19T00:03:23;0.63;;;0.63;;
8281;SDS011;25606;42.686;23.136;2023-09-19T00:05:52;0.80;;;0.80;;
8281;SDS011;25606;42.686;23.136;2023-09-19T00:08:20;0.60;;;0.60;;
8281;SDS011;25606;42.686;23.136;2023-09-19T00:10:50;0.50;;;0.50;;
8281;SDS011;25606;42.686;23.136;2023-09-19T00:13:18;0.90;;;0.90;;
8281;SDS011;25606;42.686;23.136;2023-09-19T00:15:46;0.50;;;0.50;;
8281;SDS011;25606;42.686;23.136;2023-09-19T00:18:15;1.10;;;1.10;;
8281;SDS011;25606;42.686;23.136;2023-09-19T00:20:42;0.80;;;0.80;;
8281;SDS011;25606;42.686;23.136;2023-09-19T00:23:14;0.40;;;0.40;;
8281;SDS011;25606;42.686;23.136;2023-09-19T00:25:41;1.60;;;0.70;;
8281;SDS011;25606;42.686;23.136;2023-09-19T00:28:08;0.40;;;0.40;;
8281;SDS011;25606;42.686;23.136;2023-09-19T00:30:36;1.90;;;1.80;;
8281;SDS011;25606;42.686;23.136;2023-09-19T00:33:04;1.00;;;0.73;;
8281;SDS011;25606;42.686;23.136;2023-09-19T00:35:33;0.33;;;0.33;;
8281;SDS011;25606;42.686;23.136;2023-09-19T00:38:02;0.60;;;0.60;;
8281;SDS011;25606;42.686;23.136;2023-09-19T00:40:31;1.13;;;1.03;;
8281;SDS011;25606;42.686;23.136;2023-09-19T00:43:00;0.53;;;0.53;;
8281;SDS011;25606;42.686;23.136;2023-09-19T00:45:27;0.63;;;0.63;;
8281;SDS011;25606;42.686;23.136;2023-09-19T00:47:54;0.83;;;0.83;;
8281;SDS011;25606;42.686;23.136;2023-09-19T00:50:23;0.40;;;0.40;;
8281;SDS011;25606;42.686;23.136;2023-09-19T00:52:53;0.70;;;0.70;;
8281;SDS011;25606;42.686;23.136;2023-09-19T00:55:21;2.17;;;0.70;;
8281;SDS011;25606;42.686;23.136;2023-09-19T00:57:49;0.77;;;0.77;;
8281;SDS011;25606;42.686;23.136;2023-09-19T01:00:17;0.47;;;0.47;;
8281;SDS011;25606;42.686;23.136;2023-09-19T01:02:46;0.40;;;0.40;;
8281;SDS011;25606;42.686;23.136;2023-09-19T01:05:13;0.30;;;0.30;;
8281;SDS011;25606;42.686;23.136;2023-09-19T01:07:41;0.50;;;0.50;;
8281;SDS011;25606;42.686;23.136;2023-09-19T01:10:11;0.60;;;0.60;;
8281;SDS011;25606;42.686;23.136;2023-09-19T01:12:43;1.03;;;0.53;;
8281;SDS011;25606;42.686;23.136;2023-09-19T01:15:15;0.30;;;0.30;;
8281;SDS011;25606;42.686;23.136;2023-09-19T01:17:45;0.50;;;0.50;;
8281;SDS011;25606;42.686;23.136;2023-09-19T01:20:25;1.13;;;1.13;;
8281;SDS011;25606;42.686;23.136;2023-09-19T01:23:00;1.40;;;1.30;;
8281;SDS011;25606;42.686;23.136;2023-09-19T01:25:40;0.43;;;0.43;;
8281;SDS011;25606;42.686;23.136;2023-09-19T01:28:20;1.00;;;1.00;;
8281;SDS011;25606;42.686;23.136;2023-09-19T01:30:52;0.33;;;0.33;;
8281;SDS011;25606;42.686;23.136;2023-09-19T01:33:24;0.50;;;0.50;;
8281;SDS011;25606;42.686;23.136;2023-09-19T01:35:51;0.60;;;0.60;;
8281;SDS011;25606;42.686;23.136;2023-09-19T01:38:23;0.50;;;0.50;;
8281;SDS011;25606;42.686;23.136;2023-09-19T01:40:55;0.63;;;0.63;;
8281;SDS011;25606;42.686;23.136;2023-09-19T01:43:26;0.40;;;0.40;;
8281;SDS011;25606;42.686;23.136;2023-09-19T01:45:57;0.30;;;0.30;;
8281;SDS011;25606;42.686;23.136;2023-09-19T01:48:29;0.30;;;0.30;;
8281;SDS011;25606;42.686;23.136;2023-09-19T01:51:01;1.23;;;0.60;;
8281;SDS011;25606;42.686;23.136;2023-09-19T01:53:30;0.33;;;0.33;;
8281;SDS011;25606;42.686;23.136;2023-09-19T01:56:00;0.40;;;0.40;;
8281;SDS011;25606;42.686;23.136;2023-09-19T01:58:29;1.10;;;1.10;;
8281;SDS011;25606;42.686;23.136;2023-09-19T02:01:01;0.43;;;0.43;;
8281;SDS011;25606;42.686;23.136;2023-09-19T02:03:28;0.40;;;0.40;;
8281;SDS011;25606;42.686;23.136;2023-09-19T02:05:56;0.50;;;0.50;;
8281;SDS011;25606;42.686;23.136;2023-09-19T02:08:23;0.73;;;0.70;;
8281;SDS011;25606;42.686;23.136;2023-09-19T02:10:51;0.87;;;0.87;;
8281;SDS011;25606;42.686;23.136;2023-09-19T02:13:18;0.60;;;0.60;;
8281;SDS011;25606;42.686;23.136;2023-09-19T02:15:46;0.43;;;0.43;;
8281;SDS011;25606;42.686;23.136;2023-09-19T02:18:15;0.60;;;0.60;;
8281;SDS011;25606;42.686;23.136;2023-09-19T02:20:42;0.80;;;0.80;;
8281;SDS011;25606;42.686;23.136;2023-09-19T02:23:09;0.70;;;0.70;;
8281;SDS011;25606;42.686;23.136;2023-09-19T02:25:37;0.50;;;0.50;;
8281;SDS011;25606;42.686;23.136;2023-09-19T02:28:06;0.40;;;0.40;;
8281;SDS011;25606;42.686;23.136;2023-09-19T02:30:34;0.60;;;0.60;;
8281;SDS011;25606;42.686;23.136;2023-09-19T02:33:02;1.50;;;1.50;;
8281;SDS011;25606;42.686;23.136;2023-09-19T02:35:32;0.80;;;0.80;;
8281;SDS011;25606;42.686;23.136;2023-09-19T02:38:01;0.80;;;0.80;;
8281;SDS011;25606;42.686;23.136;2023-09-19T02:40:31;0.57;;;0.57;;
8281;SDS011;25606;42.686;23.136;2023-09-19T02:43:00;0.53;;;0.53;;
8281;SDS011;25606;42.686;23.136;2023-09-19T02:45:28;0.70;;;0.70;;
8281;SDS011;25606;42.686;23.136;2023-09-19T02:47:56;0.90;;;0.90;;
8281;SDS011;25606;42.686;23.136;2023-09-19T02:50:23;0.40;;;0.40;;
8281;SDS011;25606;42.686;23.136;2023-09-19T02:52:52;0.80;;;0.80;;
8281;SDS011;25606;42.686;23.136;2023-09-19T02:55:19;1.77;;;1.00;;
8281;SDS011;25606;42.686;23.136;2023-09-19T02:57:47;0.40;;;0.40;;
8281;SDS011;25606;42.686;23.136;2023-09-19T03:00:15;0.50;;;0.50;;
8281;SDS011;25606;42.686;23.136;2023-09-19T03:02:46;0.87;;;0.87;;
8281;SDS011;25606;42.686;23.136;2023-09-19T03:05:14;0.63;;;0.63;;
8281;SDS011;25606;42.686;23.136;2023-09-19T03:07:41;0.40;;;0.40;;
8281;SDS011;25606;42.686;23.136;2023-09-19T03:10:12;0.40;;;0.40;;
8281;SDS011;25606;42.686;23.136;2023-09-19T03:12:41;0.40;;;0.40;;
8281;SDS011;25606;42.686;23.136;2023-09-19T03:15:08;0.40;;;0.40;;
8281;SDS011;25606;42.686;23.136;2023-09-19T03:17:36;0.60;;;0.60;;
8281;SDS011;25606;42.686;23.136;2023-09-19T03:20:04;2.53;;;0.83;;
8281;SDS011;25606;42.686;23.136;2023-09-19T03:22:34;0.40;;;0.40;;
8281;SDS011;25606;42.686;23.136;2023-09-19T03:25:01;0.33;;;0.33;;
8281;SDS011;25606;42.686;23.136;2023-09-19T03:27:34;0.40;;;0.40;;
8281;SDS011;25606;42.686;23.136;2023-09-19T03:30:01;0.43;;;0.43;;
8281;SDS011;25606;42.686;23.136;2023-09-19T03:32:31;0.50;;;0.50;;
8281;SDS011;25606;42.686;23.136;2023-09-19T03:34:59;0.87;;;0.87;;
8281;SDS011;25606;42.686;23.136;2023-09-19T03:37:28;1.00;;;1.00;;
8281;SDS011;25606;42.686;23.136;2023-09-19T03:39:56;0.80;;;0.80;;
8281;SDS011;25606;42.686;23.136;2023-09-19T03:42:23;0.80;;;0.80;;
8281;SDS011;25606;42.686;23.136;2023-09-19T03:44:53;0.40;;;0.40;;
8281;SDS011;25606;42.686;23.136;2023-09-19T03:47:21;0.50;;;0.50;;
8281;SDS011;25606;42.686;23.136;2023-09-19T03:49:48;0.63;;;0.63;;
8281;SDS011;25606;42.686;23.136;2023-09-19T03:52:16;0.43;;;0.43;;
8281;SDS011;25606;42.686;23.136;2023-09-19T03:54:43;1.27;;;1.13;;
8281;SDS011;25606;42.686;23.136;2023-09-19T03:57:10;0.87;;;0.87;;
8281;SDS011;25606;42.686;23.136;2023-09-19T03:59:41;0.43;;;0.43;;
8281;SDS011;25606;42.686;23.136;2023-09-19T04:02:10;0.53;;;0.53;;
8281;SDS011;25606;42.686;23.136;2023-09-19T04:04:47;0.80;;;0.80;;
8281;SDS011;25606;42.686;23.136;2023-09-19T04:07:14;0.57;;;0.57;;
8281;SDS011;25606;42.686;23.136;2023-09-19T04:09:41;0.50;;;0.50;;
8281;SDS011;25606;42.686;23.136;2023-09-19T04:12:09;0.50;;;0.50;;
8281;SDS011;25606;42.686;23.136;2023-09-19T04:14:36;0.40;;;0.40;;
8281;SDS011;25606;42.686;23.136;2023-09-19T04:17:03;0.70;;;0.70;;
8281;SDS011;25606;42.686;23.136;2023-09-19T04:19:32;0.50;;;0.50;;
8281;SDS011;25606;42.686;23.136;2023-09-19T04:22:00;0.43;;;0.43;;
8281;SDS011;25606;42.686;23.136;2023-09-19T04:24:29;0.60;;;0.60;;
8281;SDS011;25606;42.686;23.136;2023-09-19T04:26:57;0.83;;;0.83;;
8281;SDS011;25606;42.686;23.136;2023-09-19T04:29:25;0.50;;;0.50;;
8281;SDS011;25606;42.686;23.136;2023-09-19T04:31:54;0.60;;;0.60;;
8281;SDS011;25606;42.686;23.136;2023-09-19T04:34:22;0.73;;;0.73;;
8281;SDS011;25606;42.686;23.136;2023-09-19T04:36:52;0.77;;;0.77;;
8281;SDS011;25606;42.686;23.136;2023-09-19T04:39:19;1.17;;;1.13;;
8281;SDS011;25606;42.686;23.136;2023-09-19T04:41:46;0.83;;;0.73;;
8281;SDS011;25606;42.686;23.136;2023-09-19T04:44:13;1.07;;;1.07;;
8281;SDS011;25606;42.686;23.136;2023-09-19T04:46:41;0.60;;;0.60;;
8281;SDS011;25606;42.686;23.136;2023-09-19T04:49:08;0.47;;;0.47;;
8281;SDS011;25606;42.686;23.136;2023-09-19T04:51:36;0.73;;;0.73;;
8281;SDS011;25606;42.686;23.136;2023-09-19T04:54:05;1.07;;;1.07;;
8281;SDS011;25606;42.686;23.136;2023-09-19T04:56:32;0.67;;;0.67;;
8281;SDS011;25606;42.686;23.136;2023-09-19T04:58:59;0.97;;;0.97;;
8281;SDS011;25606;42.686;23.136;2023-09-19T05:01:28;0.70;;;0.70;;
8281;SDS011;25606;42.686;23.136;2023-09-19T05:03:55;1.07;;;1.00;;
8281;SDS011;25606;42.686;23.136;2023-09-19T05:06:23;1.03;;;1.00;;
8281;SDS011;25606;42.686;23.136;2023-09-19T05:08:51;0.87;;;0.87;;
8281;SDS011;25606;42.686;23.136;2023-09-19T05:11:20;1.53;;;1.43;;
8281;SDS011;25606;42.686;23.136;2023-09-19T05:13:48;1.60;;;1.40;;
8281;SDS011;25606;42.686;23.136;2023-09-19T05:16:18;1.07;;;1.00;;
8281;SDS011;25606;42.686;23.136;2023-09-19T05:18:45;2.10;;;1.73;;
8281;SDS011;25606;42.686;23.136;2023-09-19T05:21:12;2.07;;;1.63;;
8281;SDS011;25606;42.686;23.136;2023-09-19T05:23:40;1.67;;;1.33;;
8281;SDS011;25606;42.686;23.136;2023-09-19T05:26:07;1.80;;;1.67;;
8281;SDS011;25606;42.686;23.136;2023-09-19T05:28:37;1.50;;;1.20;;
8281;SDS011;25606;42.686;23.136;2023-09-19T05:31:04;3.57;;;2.37;;
8281;SDS011;25606;42.686;23.136;2023-09-19T05:33:31;2.33;;;1.57;;
8281;SDS011;25606;42.686;23.136;2023-09-19T05:35:58;1.83;;;1.60;;
8281;SDS011;25606;42.686;23.136;2023-09-19T05:38:26;3.10;;;2.17;;
8281;SDS011;25606;42.686;23.136;2023-09-19T05:40:53;2.10;;;1.50;;
8281;SDS011;25606;42.686;23.136;2023-09-19T05:43:20;1.10;;;1.03;;
8281;SDS011;25606;42.686;23.136;2023-09-19T05:45:49;2.93;;;2.07;;
8281;SDS011;25606;42.686;23.136;2023-09-19T05:48:18;8.07;;;3.77;;
8281;SDS011;25606;42.686;23.136;2023-09-19T05:50:46;3.67;;;1.93;;
8281;SDS011;25606;42.686;23.136;2023-09-19T05:53:14;4.63;;;2.57;;
8281;SDS011;25606;42.686;23.136;2023-09-19T05:55:42;3.47;;;2.17;;
8281;SDS011;25606;42.686;23.136;2023-09-19T05:58:10;5.20;;;2.90;;
8281;SDS011;25606;42.686;23.136;2023-09-19T06:00:39;5.13;;;3.00;;
8281;SDS011;25606;42.686;23.136;2023-09-19T06:03:11;7.37;;;3.20;;
8281;SDS011;25606;42.686;23.136;2023-09-19T06:05:39;4.40;;;2.43;;
8281;SDS011;25606;42.686;23.136;2023-09-19T06:08:06;6.07;;;2.80;;
8281;SDS011;25606;42.686;23.136;2023-09-19T06:10:34;7.70;;;3.10;;
8281;SDS011;25606;42.686;23.136;2023-09-19T06:13:01;6.87;;;2.90;;
8281;SDS011;25606;42.686;23.136;2023-09-19T06:15:30;9.50;;;3.37;;
8281;SDS011;25606;42.686;23.136;2023-09-19T06:17:58;13.00;;;3.70;;
8281;SDS011;25606;42.686;23.136;2023-09-19T06:20:28;13.07;;;3.60;;
8281;SDS011;25606;42.686;23.136;2023-09-19T06:22:56;12.80;;;4.33;;
8281;SDS011;25606;42.686;23.136;2023-09-19T06:25:24;8.83;;;3.20;;
8281;SDS011;25606;42.686;23.136;2023-09-19T06:27:52;8.47;;;3.50;;
8281;SDS011;25606;42.686;23.136;2023-09-19T06:30:20;5.43;;;2.73;;
8281;SDS011;25606;42.686;23.136;2023-09-19T06:32:49;6.00;;;2.73;;
8281;SDS011;25606;42.686;23.136;2023-09-19T06:35:17;4.07;;;2.13;;
8281;SDS011;25606;42.686;23.136;2023-09-19T06:37:45;7.93;;;3.10;;
8281;SDS011;25606;42.686;23.136;2023-09-19T06:40:13;9.60;;;3.63;;
8281;SDS011;25606;42.686;23.136;2023-09-19T06:42:41;10.87;;;4.30;;
8281;SDS011;25606;42.686;23.136;2023-09-19T06:45:09;9.50;;;3.67;;
8281;SDS011;25606;42.686;23.136;2023-09-19T06:47:38;10.03;;;4.07;;
8281;SDS011;25606;42.686;23.136;2023-09-19T06:50:06;5.20;;;2.43;;
8281;SDS011;25606;42.686;23.136;2023-09-19T06:52:38;4.07;;;2.23;;
8281;SDS011;25606;42.686;23.136;2023-09-19T06:55:07;7.00;;;3.13;;
8281;SDS011;25606;42.686;23.136;2023-09-19T06:57:35;6.03;;;2.67;;
8281;SDS011;25606;42.686;23.136;2023-09-19T07:00:02;6.53;;;2.90;;
8281;SDS011;25606;42.686;23.136;2023-09-19T07:02:34;4.53;;;2.53;;
8281;SDS011;25606;42.686;23.136;2023-09-19T07:05:01;5.77;;;2.53;;
8281;SDS011;25606;42.686;23.136;2023-09-19T07:07:30;5.53;;;2.63;;
8281;SDS011;25606;42.686;23.136;2023-09-19T07:10:00;6.07;;;2.47;;
8281;SDS011;25606;42.686;23.136;2023-09-19T07:12:28;6.40;;;3.13;;
8281;SDS011;25606;42.686;23.136;2023-09-19T07:14:55;5.53;;;3.07;;
8281;SDS011;25606;42.686;23.136;2023-09-19T07:17:23;12.17;;;4.73;;
8281;SDS011;25606;42.686;23.136;2023-09-19T07:19:50;5.90;;;2.70;;
8281;SDS011;25606;42.686;23.136;2023-09-19T07:22:17;6.40;;;3.03;;
8281;SDS011;25606;42.686;23.136;2023-09-19T07:24:45;5.90;;;2.37;;
8281;SDS011;25606;42.686;23.136;2023-09-19T07:27:14;6.33;;;2.50;;
8281;SDS011;25606;42.686;23.136;2023-09-19T07:29:43;9.83;;;3.67;;
8281;SDS011;25606;42.686;23.136;2023-09-19T07:32:10;11.50;;;3.80;;
8281;SDS011;25606;42.686;23.136;2023-09-19T07:34:39;13.33;;;4.60;;
8281;SDS011;25606;42.686;23.136;2023-09-19T07:37:06;11.87;;;3.53;;
8281;SDS011;25606;42.686;23.136;2023-09-19T07:39:34;10.70;;;4.50;;
8281;SDS011;25606;42.686;23.136;2023-09-19T07:42:02;9.17;;;3.50;;
8281;SDS011;25606;42.686;23.136;2023-09-19T07:44:29;11.47;;;4.03;;
8281;SDS011;25606;42.686;23.136;2023-09-19T07:46:58;13.33;;;4.03;;
8281;SDS011;25606;42.686;23.136;2023-09-19T07:49:28;9.70;;;3.60;;
8281;SDS011;25606;42.686;23.136;2023-09-19T07:51:55;15.00;;;4.37;;
8281;SDS011;25606;42.686;23.136;2023-09-19T07:54:24;9.57;;;3.30;;
8281;SDS011;25606;42.686;23.136;2023-09-19T07:56:55;12.90;;;4.73;;
8281;SDS011;25606;42.686;23.136;2023-09-19T07:59:23;16.17;;;5.07;;
8281;SDS011;25606;42.686;23.136;2023-09-19T08:01:51;18.50;;;7.87;;
8281;SDS011;25606;42.686;23.136;2023-09-19T08:04:19;19.07;;;5.10;;
8281;SDS011;25606;42.686;23.136;2023-09-19T08:06:47;14.70;;;4.57;;
8281;SDS011;25606;42.686;23.136;2023-09-19T08:09:17;13.80;;;4.30;;
8281;SDS011;25606;42.686;23.136;2023-09-19T08:11:46;13.03;;;4.30;;
8281;SDS011;25606;42.686;23.136;2023-09-19T08:14:13;13.37;;;4.23;;
8281;SDS011;25606;42.686;23.136;2023-09-19T08:16:40;14.03;;;4.67;;
8281;SDS011;25606;42.686;23.136;2023-09-19T08:19:09;13.43;;;4.27;;
8281;SDS011;25606;42.686;23.136;2023-09-19T08:21:38;13.40;;;4.03;;
8281;SDS011;25606;42.686;23.136;2023-09-19T08:24:05;14.33;;;4.93;;
8281;SDS011;25606;42.686;23.136;2023-09-19T08:26:34;14.37;;;4.20;;
8281;SDS011;25606;42.686;23.136;2023-09-19T08:29:03;13.40;;;4.40;;
8281;SDS011;25606;42.686;23.136;2023-09-19T08:31:32;11.83;;;3.53;;
8281;SDS011;25606;42.686;23.136;2023-09-19T08:34:00;11.80;;;4.23;;
8281;SDS011;25606;42.686;23.136;2023-09-19T08:36:27;15.63;;;4.60;;
8281;SDS011;25606;42.686;23.136;2023-09-19T08:38:57;14.70;;;4.60;;
8281;SDS011;25606;42.686;23.136;2023-09-19T08:41:26;14.63;;;4.20;;
8281;SDS011;25606;42.686;23.136;2023-09-19T08:43:53;16.63;;;4.80;;
8281;SDS011;25606;42.686;23.136;2023-09-19T08:46:20;17.37;;;5.00;;
8281;SDS011;25606;42.686;23.136;2023-09-19T08:48:54;14.53;;;4.33;;
8281;SDS011;25606;42.686;23.136;2023-09-19T08:51:26;14.57;;;4.07;;
8281;SDS011;25606;42.686;23.136;2023-09-19T08:53:58;18.67;;;5.63;;
8281;SDS011;25606;42.686;23.136;2023-09-19T08:56:31;16.17;;;4.57;;
8281;SDS011;25606;42.686;23.136;2023-09-19T08:59:02;19.07;;;5.23;;
8281;SDS011;25606;42.686;23.136;2023-09-19T09:01:33;16.70;;;4.60;;
8281;SDS011;25606;42.686;23.136;2023-09-19T09:04:01;12.90;;;4.00;;
8281;SDS011;25606;42.686;23.136;2023-09-19T09:06:29;17.23;;;4.70;;
8281;SDS011;25606;42.686;23.136;2023-09-19T09:08:57;15.63;;;4.67;;
8281;SDS011;25606;42.686;23.136;2023-09-19T09:11:25;16.50;;;4.40;;
8281;SDS011;25606;42.686;23.136;2023-09-19T09:13:54;15.13;;;4.37;;
8281;SDS011;25606;42.686;23.136;2023-09-19T09:16:22;19.60;;;5.13;;
8281;SDS011;25606;42.686;23.136;2023-09-19T09:18:51;27.10;;;6.40;;
8281;SDS011;25606;42.686;23.136;2023-09-19T09:21:19;17.80;;;4.47;;
8281;SDS011;25606;42.686;23.136;2023-09-19T09:23:47;17.10;;;4.30;;
8281;SDS011;25606;42.686;23.136;2023-09-19T09:26:14;22.07;;;5.17;;
8281;SDS011;25606;42.686;23.136;2023-09-19T09:28:44;35.13;;;7.43;;
8281;SDS011;25606;42.686;23.136;2023-09-19T09:31:23;18.60;;;4.10;;
8281;SDS011;25606;42.686;23.136;2023-09-19T09:33:54;27.13;;;6.23;;
8281;SDS011;25606;42.686;23.136;2023-09-19T09:36:33;31.73;;;6.60;;
8281;SDS011;25606;42.686;23.136;2023-09-19T09:39:01;22.73;;;4.77;;
8281;SDS011;25606;42.686;23.136;2023-09-19T09:41:41;27.93;;;5.90;;
8281;SDS011;25606;42.686;23.136;2023-09-19T09:44:12;25.87;;;5.80;;
8281;SDS011;25606;42.686;23.136;2023-09-19T09:46:43;31.63;;;6.87;;
8281;SDS011;25606;42.686;23.136;2023-09-19T09:49:31;27.37;;;5.63;;
8281;SDS011;25606;42.686;23.136;2023-09-19T09:52:01;23.27;;;5.27;;
8281;SDS011;25606;42.686;23.136;2023-09-19T09:54:31;25.73;;;5.87;;
8281;SDS011;25606;42.686;23.136;2023-09-19T09:57:02;27.33;;;5.77;;
8281;SDS011;25606;42.686;23.136;2023-09-19T09:59:51;29.30;;;6.50;;
8281;SDS011;25606;42.686;23.136;2023-09-19T10:02:25;33.57;;;6.67;;
8281;SDS011;25606;42.686;23.136;2023-09-19T10:04:54;17.63;;;4.10;;
8281;SDS011;25606;42.686;23.136;2023-09-19T10:07:40;29.97;;;6.27;;
8281;SDS011;25606;42.686;23.136;2023-09-19T10:10:13;34.58;;;6.97;;
8281;SDS011;25606;42.686;23.136;2023-09-19T10:12:45;35.83;;;7.53;;
8281;SDS011;25606;42.686;23.136;2023-09-19T10:15:14;28.37;;;6.10;;
8281;SDS011;25606;42.686;23.136;2023-09-19T10:17:44;19.35;;;4.97;;
8281;SDS011;25606;42.686;23.136;2023-09-19T10:20:12;43.10;;;8.33;;
8281;SDS011;25606;42.686;23.136;2023-09-19T10:23:04;28.20;;;6.50;;
8281;SDS011;25606;42.686;23.136;2023-09-19T10:25:36;25.20;;;6.30;;
8281;SDS011;25606;42.686;23.136;2023-09-19T10:28:05;18.07;;;5.03;;
8281;SDS011;25606;42.686;23.136;2023-09-19T10:30:36;20.67;;;4.87;;
8281;SDS011;25606;42.686;23.136;2023-09-19T10:33:05;20.63;;;4.60;;
8281;SDS011;25606;42.686;23.136;2023-09-19T10:35:33;19.13;;;4.63;;
8281;SDS011;25606;42.686;23.136;2023-09-19T10:38:02;20.37;;;4.57;;
8281;SDS011;25606;42.686;23.136;2023-09-19T10:40:32;23.23;;;5.47;;
8281;SDS011;25606;42.686;23.136;2023-09-19T10:43:01;22.07;;;5.10;;
8281;SDS011;25606;42.686;23.136;2023-09-19T10:45:32;18.17;;;4.63;;
8281;SDS011;25606;42.686;23.136;2023-09-19T10:48:00;17.85;;;4.53;;
8281;SDS011;25606;42.686;23.136;2023-09-19T10:50:31;14.97;;;4.23;;
8281;SDS011;25606;42.686;23.136;2023-09-19T10:52:59;17.93;;;4.57;;
8281;SDS011;25606;42.686;23.136;2023-09-19T10:55:30;12.63;;;3.93;;
8281;SDS011;25606;42.686;23.136;2023-09-19T10:57:58;16.10;;;4.60;;
8281;SDS011;25606;42.686;23.136;2023-09-19T11:00:28;16.13;;;4.10;;
8281;SDS011;25606;42.686;23.136;2023-09-19T11:06:02;19.20;;;4.43;;
8281;SDS011;25606;42.686;23.136;2023-09-19T11:08:53;21.57;;;4.87;;
8281;SDS011;25606;42.686;23.136;2023-09-19T11:11:44;14.75;;;3.83;;
8281;SDS011;25606;42.686;23.136;2023-09-19T11:14:29;24.35;;;5.55;;
8281;SDS011;25606;42.686;23.136;2023-09-19T11:25:42;21.52;;;4.65;;
8281;SDS011;25606;42.686;23.136;2023-09-19T11:30:58;17.05;;;4.18;;
8281;SDS011;25606;42.686;23.136;2023-09-19T11:33:26;19.92;;;4.93;;
8281;SDS011;25606;42.686;23.136;2023-09-19T11:35:58;32.97;;;7.38;;
8281;SDS011;25606;42.686;23.136;2023-09-19T11:46:52;32.72;;;11.02;;
8281;SDS011;25606;42.686;23.136;2023-09-19T11:49:25;31.20;;;8.48;;
8281;SDS011;25606;42.686;23.136;2023-09-19T11:51:55;34.60;;;7.40;;
8281;SDS011;25606;42.686;23.136;2023-09-19T11:54:23;29.23;;;7.30;;
8281;SDS011;25606;42.686;23.136;2023-09-19T11:56:53;35.20;;;7.90;;
8281;SDS011;25606;42.686;23.136;2023-09-19T11:59:22;35.90;;;14.45;;
8281;SDS011;25606;42.686;23.136;2023-09-19T12:01:53;77.30;;;63.20;;
8281;SDS011;25606;42.686;23.136;2023-09-19T12:04:31;59.67;;;51.88;;
8281;SDS011;25606;42.686;23.136;2023-09-19T12:07:00;140.10;;;127.55;;
8281;SDS011;25606;42.686;23.136;2023-09-19T12:09:29;187.07;;;172.60;;
8281;SDS011;25606;42.686;23.136;2023-09-19T12:11:57;197.27;;;180.15;;
8281;SDS011;25606;42.686;23.136;2023-09-19T12:14:25;361.60;;;335.05;;
8281;SDS011;25606;42.686;23.136;2023-09-19T12:16:53;242.15;;;222.90;;
8281;SDS011;25606;42.686;23.136;2023-09-19T12:19:21;269.83;;;249.90;;
8281;SDS011;25606;42.686;23.136;2023-09-19T12:21:58;341.13;;;316.60;;
8281;SDS011;25606;42.686;23.136;2023-09-19T12:24:29;334.75;;;311.67;;
8281;SDS011;25606;42.686;23.136;2023-09-19T12:27:01;364.67;;;338.17;;
8281;SDS011;25606;42.686;23.136;2023-09-19T12:29:31;376.25;;;349.27;;
8281;SDS011;25606;42.686;23.136;2023-09-19T12:31:59;319.05;;;294.48;;
8281;SDS011;25606;42.686;23.136;2023-09-19T12:34:30;257.08;;;238.43;;
8281;SDS011;25606;42.686;23.136;2023-09-19T12:37:06;219.95;;;201.77;;
8281;SDS011;25606;42.686;23.136;2023-09-19T12:39:40;211.93;;;195.18;;
8281;SDS011;25606;42.686;23.136;2023-09-19T12:42:08;179.73;;;166.95;;
8281;SDS011;25606;42.686;23.136;2023-09-19T12:44:39;188.52;;;174.18;;
8281;SDS011;25606;42.686;23.136;2023-09-19T12:47:08;226.10;;;209.30;;
8281;SDS011;25606;42.686;23.136;2023-09-19T12:49:36;219.85;;;203.20;;
8281;SDS011;25606;42.686;23.136;2023-09-19T12:52:04;169.15;;;154.93;;
8281;SDS011;25606;42.686;23.136;2023-09-19T12:54:38;278.15;;;256.33;;
8281;SDS011;25606;42.686;23.136;2023-09-19T12:57:07;307.88;;;283.92;;
8281;SDS011;25606;42.686;23.136;2023-09-19T12:59:35;293.60;;;271.70;;
8281;SDS011;25606;42.686;23.136;2023-09-19T13:02:05;391.80;;;362.17;;
8281;SDS011;25606;42.686;23.136;2023-09-19T13:04:39;337.27;;;312.60;;
8281;SDS011;25606;42.686;23.136;2023-09-19T13:07:08;259.90;;;240.73;;
8281;SDS011;25606;42.686;23.136;2023-09-19T13:10:03;258.75;;;239.77;;
8281;SDS011;25606;42.686;23.136;2023-09-19T13:12:35;241.63;;;222.98;;
8281;SDS011;25606;42.686;23.136;2023-09-19T13:15:09;230.65;;;212.98;;
8281;SDS011;25606;42.686;23.136;2023-09-19T13:17:46;270.83;;;249.50;;
8281;SDS011;25606;42.686;23.136;2023-09-19T13:20:21;288.58;;;266.35;;
8281;SDS011;25606;42.686;23.136;2023-09-19T13:22:52;276.88;;;257.10;;
8281;SDS011;25606;42.686;23.136;2023-09-19T13:25:23;250.80;;;232.55;;
8281;SDS011;25606;42.686;23.136;2023-09-19T13:27:53;132.90;;;121.95;;
8281;SDS011;25606;42.686;23.136;2023-09-19T13:30:21;91.88;;;81.60;;
8281;SDS011;25606;42.686;23.136;2023-09-19T13:32:52;84.03;;;73.55;;
8281;SDS011;25606;42.686;23.136;2023-09-19T13:35:19;62.85;;;47.35;;
8281;SDS011;25606;42.686;23.136;2023-09-19T13:37:47;56.00;;;41.75;;
8281;SDS011;25606;42.686;23.136;2023-09-19T13:40:17;53.58;;;20.75;;
8281;SDS011;25606;42.686;23.136;2023-09-19T13:42:45;47.83;;;23.52;;
8281;SDS011;25606;42.686;23.136;2023-09-19T13:45:12;42.78;;;13.63;;
8281;SDS011;25606;42.686;23.136;2023-09-19T13:47:42;30.65;;;9.88;;
8281;SDS011;25606;42.686;23.136;2023-09-19T13:50:11;69.40;;;49.90;;
8281;SDS011;25606;42.686;23.136;2023-09-19T13:52:39;37.85;;;11.55;;
8281;SDS011;25606;42.686;23.136;2023-09-19T13:55:07;32.00;;;8.77;;
8281;SDS011;25606;42.686;23.136;2023-09-19T13:57:34;36.58;;;7.68;;
8281;SDS011;25606;42.686;23.136;2023-09-19T14:00:02;43.25;;;9.05;;
8281;SDS011;25606;42.686;23.136;2023-09-19T14:02:30;33.15;;;30.00;;
8281;SDS011;25606;42.686;23.136;2023-09-19T14:04:57;42.95;;;8.02;;
8281;SDS011;25606;42.686;23.136;2023-09-19T14:07:27;23.95;;;5.30;;
8281;SDS011;25606;42.686;23.136;2023-09-19T14:09:57;22.50;;;4.95;;
8281;SDS011;25606;42.686;23.136;2023-09-19T14:12:25;22.55;;;6.90;;
8281;SDS011;25606;42.686;23.136;2023-09-19T14:14:52;35.33;;;7.43;;
8281;SDS011;25606;42.686;23.136;2023-09-19T14:17:21;28.48;;;6.10;;
8281;SDS011;25606;42.686;23.136;2023-09-19T14:19:49;27.80;;;5.93;;
8281;SDS011;25606;42.686;23.136;2023-09-19T14:22:16;25.30;;;5.50;;
8281;SDS011;25606;42.686;23.136;2023-09-19T14:24:45;26.38;;;5.82;;
8281;SDS011;25606;42.686;23.136;2023-09-19T14:27:13;23.42;;;5.45;;
8281;SDS011;25606;42.686;23.136;2023-09-19T14:29:40;24.45;;;5.57;;
8281;SDS011;25606;42.686;23.136;2023-09-19T14:32:08;23.73;;;5.32;;
8281;SDS011;25606;42.686;23.136;2023-09-19T14:34:35;25.80;;;5.82;;
8281;SDS011;25606;42.686;23.136;2023-09-19T14:37:07;28.77;;;6.47;;
8281;SDS011;25606;42.686;23.136;2023-09-19T14:39:34;23.92;;;5.70;;
8281;SDS011;25606;42.686;23.136;2023-09-19T14:42:05;23.25;;;6.13;;
8281;SDS011;25606;42.686;23.136;2023-09-19T14:44:34;23.35;;;5.15;;
8281;SDS011;25606;42.686;23.136;2023-09-19T14:47:02;31.65;;;7.05;;
8281;SDS011;25606;42.686;23.136;2023-09-19T14:49:32;21.75;;;5.05;;
8281;SDS011;25606;42.686;23.136;2023-09-19T14:52:00;30.35;;;6.68;;
8281;SDS011;25606;42.686;23.136;2023-09-19T14:54:29;19.55;;;4.85;;
8281;SDS011;25606;42.686;23.136;2023-09-19T14:56:56;19.95;;;4.80;;
8281;SDS011;25606;42.686;23.136;2023-09-19T14:59:31;26.75;;;6.30;;
8281;SDS011;25606;42.686;23.136;2023-09-19T15:01:58;25.02;;;5.65;;
8281;SDS011;25606;42.686;23.136;2023-09-19T15:04:26;25.73;;;5.63;;
8281;SDS011;25606;42.686;23.136;2023-09-19T15:06:53;29.80;;;7.45;;
8281;SDS011;25606;42.686;23.136;2023-09-19T15:09:21;24.67;;;5.93;;
8281;SDS011;25606;42.686;23.136;2023-09-19T15:11:51;26.60;;;5.67;;